PWSweather.com
Personal Weather Stations
Station Observations
CARNOUSTIE
Pambride, CarnoustieGB DD7 6DY

PambrideCarnoustieGB DD7 6DY

Lat: 56.50889, Lon: -2.7051

Elevation: 105

Station Type: Oregon Scientific WMR200

www.carnoustieweather.co.uk

High Low Average
Temperature 61.9°F16.6°C 44.4°F6.9°C 53.3°F11.8°C
Dew Point 52.9°F11.6°C 39.8°F4.3°C 47.0°F8.3°C
Winds 13.8 mph 22.2 kmh Calm Calm 5.0 mph S8.0 kmh S
Wind Gusts 24.2 mph38.9 kmh -- 8.0 mph12.9 kmh
Humidity 86% 62% 79%
Pressure 29.56 in1001.0 mb 29.23 in989.8 mb -
Precipitation 0.11 in2.8 mm - -
Hour Temp Dew Point Humidity Winds Wind Gusts Pressure Precip Precip Rate Daily Precip Total
12:00 AM 46.6°F8.1°C 41.7°F5.4°C 83% 1.2 mph SW1.9 kmh SW 2.3 mph3.7 kmh 29.53 in1000.0 mb - 0.00 in0.0 mm 0.00 in0.0 mm
12:10 AM 46.6°F8.1°C 41.7°F5.4°C 83% 2.3 mph WSW3.7 kmh WSW 2.3 mph3.7 kmh 29.56 in1001.0 mb - 0.00 in0.0 mm 0.00 in0.0 mm
12:15 AM 46.6°F8.1°C 41.7°F5.4°C 83% 2.3 mph SW3.7 kmh SW 3.5 mph5.6 kmh 29.56 in1001.0 mb - 0.00 in0.0 mm 0.00 in0.0 mm
12:20 AM 46.6°F8.1°C 41.7°F5.4°C 83% 2.3 mph WSW3.7 kmh WSW 2.3 mph3.7 kmh 29.56 in1001.0 mb - 0.00 in0.0 mm 0.00 in0.0 mm
12:25 AM 46.6°F8.1°C 41.7°F5.4°C 83% 2.3 mph WSW3.7 kmh WSW 3.5 mph5.6 kmh 29.56 in1001.0 mb - 0.00 in0.0 mm 0.00 in0.0 mm
12:30 AM 46.6°F8.1°C 41.7°F5.4°C 83% 1.2 mph SSW1.9 kmh SSW 1.2 mph1.9 kmh 29.56 in1001.0 mb - 0.00 in0.0 mm 0.00 in0.0 mm
12:35 AM 46.2°F7.9°C 41.7°F5.4°C 84% 1.2 mph SW1.9 kmh SW 1.2 mph1.9 kmh 29.56 in1001.0 mb - 0.00 in0.0 mm 0.00 in0.0 mm
12:40 AM 46.2°F7.9°C 41.7°F5.4°C 84% 1.2 mph WSW1.9 kmh WSW 2.3 mph3.7 kmh 29.56 in1001.0 mb - 0.00 in0.0 mm 0.00 in0.0 mm
12:45 AM 46.2°F7.9°C 41.7°F5.4°C 84% 1.2 mph W1.9 kmh W 1.2 mph1.9 kmh 29.56 in1001.0 mb - 0.00 in0.0 mm 0.00 in0.0 mm
12:50 AM 46.0°F7.8°C 41.5°F5.3°C 84% Calm Calm -- 29.56 in1001.0 mb - 0.00 in0.0 mm 0.00 in0.0 mm
12:55 AM 45.7°F7.6°C 40.9°F4.9°C 83% 1.2 mph W1.9 kmh W 2.3 mph3.7 kmh 29.56 in1001.0 mb - 0.00 in0.0 mm 0.00 in0.0 mm
01:00 AM 45.5°F7.5°C 40.6°F4.8°C 83% 1.2 mph W1.9 kmh W 1.2 mph1.9 kmh 29.56 in1001.0 mb - 0.00 in0.0 mm 0.00 in0.0 mm
01:10 AM 44.9°F7.2°C 40.0°F4.4°C 83% 2.3 mph NNE3.7 kmh NNE 2.3 mph3.7 kmh 29.56 in1001.0 mb - 0.00 in0.0 mm 0.00 in0.0 mm
01:15 AM 44.8°F7.1°C 39.9°F4.4°C 83% 1.2 mph NW1.9 kmh NW 1.2 mph1.9 kmh 29.56 in1001.0 mb - 0.00 in0.0 mm 0.00 in0.0 mm
01:20 AM 44.6°F7.0°C 39.8°F4.3°C 83% 1.2 mph 1.9 kmh 1.2 mph1.9 kmh 29.56 in1001.0 mb - 0.00 in0.0 mm 0.00 in0.0 mm
01:25 AM 44.4°F6.9°C 39.9°F4.4°C 84% Calm Calm -- 29.53 in1000.0 mb - 0.00 in0.0 mm 0.00 in0.0 mm
01:30 AM 44.4°F6.9°C 39.9°F4.4°C 84% Calm Calm -- 29.53 in1000.0 mb - 0.00 in0.0 mm 0.00 in0.0 mm
01:35 AM 44.6°F7.0°C 40.1°F4.5°C 84% Calm Calm 2.3 mph3.7 kmh 29.53 in1000.0 mb - 0.00 in0.0 mm 0.00 in0.0 mm
01:40 AM 44.6°F7.0°C 40.1°F4.5°C 84% 1.2 mph W1.9 kmh W 2.3 mph3.7 kmh 29.56 in1001.0 mb - 0.00 in0.0 mm 0.00 in0.0 mm
01:45 AM 44.8°F7.1°C 40.3°F4.6°C 84% 2.3 mph W3.7 kmh W 2.3 mph3.7 kmh 29.56 in1001.0 mb - 0.00 in0.0 mm 0.00 in0.0 mm
01:50 AM 45.0°F7.2°C 40.4°F4.7°C 84% 1.2 mph W1.9 kmh W 2.3 mph3.7 kmh 29.56 in1001.0 mb - 0.00 in0.0 mm 0.00 in0.0 mm
01:55 AM 45.0°F7.2°C 40.4°F4.7°C 84% 1.2 mph W1.9 kmh W 2.3 mph3.7 kmh 29.56 in1001.0 mb - 0.00 in0.0 mm 0.00 in0.0 mm
02:00 AM 45.0°F7.2°C 40.4°F4.7°C 84% 1.2 mph WSW1.9 kmh WSW 1.2 mph1.9 kmh 29.56 in1001.0 mb - 0.00 in0.0 mm 0.00 in0.0 mm
02:10 AM 44.6°F7.0°C 40.1°F4.5°C 84% Calm Calm -- 29.56 in1001.0 mb - 0.00 in0.0 mm 0.00 in0.0 mm
02:15 AM 45.0°F7.2°C 40.5°F4.7°C 84% 1.2 mph SSW1.9 kmh SSW 2.3 mph3.7 kmh 29.56 in1001.0 mb - 0.00 in0.0 mm 0.00 in0.0 mm
02:20 AM 45.4°F7.4°C 40.9°F4.9°C 84% 2.3 mph SW3.7 kmh SW 2.3 mph3.7 kmh 29.56 in1001.0 mb - 0.00 in0.0 mm 0.00 in0.0 mm
02:25 AM 45.7°F7.6°C 41.1°F5.1°C 84% Calm Calm -- 29.53 in1000.0 mb - 0.00 in0.0 mm 0.00 in0.0 mm
02:30 AM 45.9°F7.7°C 41.3°F5.2°C 84% 2.3 mph S3.7 kmh S 2.3 mph3.7 kmh 29.53 in1000.0 mb - 0.00 in0.0 mm 0.00 in0.0 mm
02:35 AM 46.0°F7.8°C 41.8°F5.4°C 85% 3.5 mph SE5.6 kmh SE 4.6 mph7.4 kmh 29.53 in1000.0 mb - 0.00 in0.0 mm 0.00 in0.0 mm
02:40 AM 46.4°F8.0°C 41.8°F5.4°C 84% 1.2 mph SSE1.9 kmh SSE 3.5 mph5.6 kmh 29.50 in999.0 mb - 0.00 in0.0 mm 0.00 in0.0 mm
02:45 AM 46.4°F8.0°C 41.9°F5.5°C 84% 3.5 mph SE5.6 kmh SE 4.6 mph7.4 kmh 29.50 in999.0 mb - 0.00 in0.0 mm 0.00 in0.0 mm
02:50 AM 46.9°F8.3°C 42.6°F5.9°C 85% 4.6 mph ESE7.4 kmh ESE 4.6 mph7.4 kmh 29.50 in999.0 mb - 0.00 in0.0 mm 0.00 in0.0 mm
02:55 AM 47.2°F8.4°C 42.9°F6.1°C 85% 4.6 mph ESE7.4 kmh ESE 5.8 mph9.3 kmh 29.47 in998.0 mb - 0.00 in0.0 mm 0.00 in0.0 mm
03:00 AM 47.5°F8.6°C 43.2°F6.2°C 85% 2.3 mph SE3.7 kmh SE 3.5 mph5.6 kmh 29.47 in998.0 mb - 0.00 in0.0 mm 0.00 in0.0 mm
03:10 AM 47.7°F8.7°C 43.4°F6.3°C 85% 3.5 mph E5.6 kmh E 4.6 mph7.4 kmh 29.47 in998.0 mb - 0.00 in0.0 mm 0.00 in0.0 mm
03:15 AM 47.5°F8.6°C 43.2°F6.2°C 85% 2.3 mph E3.7 kmh E 3.5 mph5.6 kmh 29.47 in998.0 mb - 0.00 in0.0 mm 0.00 in0.0 mm
03:20 AM 47.3°F8.5°C 43.0°F6.1°C 85% 1.2 mph S1.9 kmh S 1.2 mph1.9 kmh 29.47 in998.0 mb - 0.00 in0.0 mm 0.00 in0.0 mm
03:25 AM 47.3°F8.5°C 43.0°F6.1°C 85% 1.2 mph S1.9 kmh S 2.3 mph3.7 kmh 29.47 in998.0 mb - 0.00 in0.0 mm 0.00 in0.0 mm
03:30 AM 47.5°F8.6°C 43.2°F6.2°C 85% 4.6 mph SE7.4 kmh SE 6.9 mph11.1 kmh 29.47 in998.0 mb - 0.00 in0.0 mm 0.00 in0.0 mm
03:35 AM 48.0°F8.9°C 43.7°F6.5°C 85% 5.8 mph SE9.3 kmh SE 6.9 mph11.1 kmh 29.47 in998.0 mb - 0.00 in0.0 mm 0.00 in0.0 mm
03:40 AM 48.6°F9.2°C 44.3°F6.8°C 85% 5.8 mph SSE9.3 kmh SSE 6.9 mph11.1 kmh 29.44 in997.0 mb - 0.00 in0.0 mm 0.00 in0.0 mm
03:45 AM 48.9°F9.4°C 44.6°F7.0°C 85% 4.6 mph SE7.4 kmh SE 5.8 mph9.3 kmh 29.44 in997.0 mb - 0.00 in0.0 mm 0.00 in0.0 mm
03:50 AM 49.3°F9.6°C 45.0°F7.2°C 85% 3.5 mph SSE5.6 kmh SSE 6.9 mph11.1 kmh 29.44 in997.0 mb - 0.00 in0.0 mm 0.00 in0.0 mm
03:55 AM 49.5°F9.7°C 45.1°F7.3°C 85% 3.5 mph S5.6 kmh S 6.9 mph11.1 kmh 29.47 in998.0 mb - 0.00 in0.0 mm 0.00 in0.0 mm
04:00 AM 49.8°F9.9°C 45.5°F7.5°C 85% 4.6 mph S7.4 kmh S 8.1 mph13.0 kmh 29.47 in998.0 mb - 0.00 in0.0 mm 0.00 in0.0 mm
04:10 AM 49.8°F9.9°C 45.8°F7.7°C 86% 4.6 mph S7.4 kmh S 6.9 mph11.1 kmh 29.47 in998.0 mb - 0.00 in0.0 mm 0.00 in0.0 mm
04:15 AM 49.8°F9.9°C 45.8°F7.7°C 86% 4.6 mph S7.4 kmh S 5.8 mph9.3 kmh 29.47 in998.0 mb - 0.00 in0.0 mm 0.00 in0.0 mm
04:20 AM 49.8°F9.9°C 45.8°F7.7°C 86% 5.8 mph SSE9.3 kmh SSE 5.8 mph9.3 kmh 29.47 in998.0 mb - 0.00 in0.0 mm 0.00 in0.0 mm
04:25 AM 49.8°F9.9°C 45.8°F7.7°C 86% 5.8 mph S9.3 kmh S 6.9 mph11.1 kmh 29.44 in997.0 mb - 0.00 in0.0 mm 0.00 in0.0 mm
04:30 AM 50.0°F10.0°C 45.7°F7.6°C 85% 5.8 mph SE9.3 kmh SE 8.1 mph13.0 kmh 29.44 in997.0 mb - 0.00 in0.0 mm 0.00 in0.0 mm
04:35 AM 50.0°F10.0°C 45.7°F7.6°C 85% 5.8 mph S9.3 kmh S 8.1 mph13.0 kmh 29.44 in997.0 mb - 0.00 in0.0 mm 0.00 in0.0 mm
04:40 AM 50.0°F10.0°C 45.7°F7.6°C 85% 4.6 mph SSE7.4 kmh SSE 8.1 mph13.0 kmh 29.44 in997.0 mb - 0.00 in0.0 mm 0.00 in0.0 mm
04:45 AM 50.2°F10.1°C 45.8°F7.7°C 85% 4.6 mph SSE7.4 kmh SSE 5.8 mph9.3 kmh 29.44 in997.0 mb - 0.00 in0.0 mm 0.00 in0.0 mm
04:50 AM 50.3°F10.2°C 46.0°F7.8°C 85% 5.8 mph SE9.3 kmh SE 6.9 mph11.1 kmh 29.44 in997.0 mb - 0.00 in0.0 mm 0.00 in0.0 mm
04:55 AM 50.5°F10.3°C 46.2°F7.9°C 85% 8.1 mph SE13.0 kmh SE 10.4 mph16.7 kmh 29.44 in997.0 mb - 0.00 in0.0 mm 0.00 in0.0 mm
05:00 AM 50.7°F10.4°C 46.4°F8.0°C 85% 9.2 mph SE14.8 kmh SE 13.8 mph22.2 kmh 29.44 in997.0 mb - 0.00 in0.0 mm 0.00 in0.0 mm
05:10 AM 50.9°F10.5°C 46.9°F8.3°C 86% 6.9 mph SE11.1 kmh SE 15.0 mph24.1 kmh 29.44 in997.0 mb - 0.00 in0.0 mm 0.00 in0.0 mm
05:15 AM 51.1°F10.6°C 47.0°F8.3°C 86% 8.1 mph SE13.0 kmh SE 12.7 mph20.4 kmh 29.44 in997.0 mb - 0.00 in0.0 mm 0.00 in0.0 mm
05:20 AM 51.1°F10.6°C 47.0°F8.3°C 86% 9.2 mph S14.8 kmh S 13.8 mph22.2 kmh 29.44 in997.0 mb - 0.00 in0.0 mm 0.00 in0.0 mm
05:25 AM 51.1°F10.6°C 47.0°F8.3°C 86% 9.2 mph S14.8 kmh S 12.7 mph20.4 kmh 29.41 in995.9 mb - 0.00 in0.0 mm 0.00 in0.0 mm
05:30 AM 51.3°F10.7°C 47.2°F8.4°C 86% 8.1 mph S13.0 kmh S 15.0 mph24.1 kmh 29.41 in995.9 mb - 0.00 in0.0 mm 0.00 in0.0 mm
05:35 AM 51.4°F10.8°C 47.4°F8.6°C 86% 9.2 mph SE14.8 kmh SE 16.1 mph25.9 kmh 29.41 in995.9 mb - 0.00 in0.0 mm 0.00 in0.0 mm
05:40 AM 51.4°F10.8°C 47.4°F8.6°C 86% 8.1 mph SSE13.0 kmh SSE 12.7 mph20.4 kmh 29.38 in994.9 mb - 0.00 in0.0 mm 0.00 in0.0 mm
05:45 AM 51.4°F10.8°C 47.4°F8.6°C 86% 10.4 mph SE16.7 kmh SE 13.8 mph22.2 kmh 29.38 in994.9 mb - 0.00 in0.0 mm 0.00 in0.0 mm
05:50 AM 51.4°F10.8°C 47.4°F8.6°C 86% 6.9 mph SSE11.1 kmh SSE 12.7 mph20.4 kmh 29.38 in994.9 mb - 0.00 in0.0 mm 0.00 in0.0 mm
05:55 AM 51.4°F10.8°C 47.1°F8.4°C 85% 6.9 mph SE11.1 kmh SE 9.2 mph14.8 kmh 29.38 in994.9 mb - 0.00 in0.0 mm 0.00 in0.0 mm
06:00 AM 51.4°F10.8°C 47.1°F8.4°C 85% 9.2 mph SSE14.8 kmh SSE 13.8 mph22.2 kmh 29.38 in994.9 mb - 0.00 in0.0 mm 0.00 in0.0 mm
06:10 AM 51.4°F10.8°C 47.1°F8.4°C 85% 11.5 mph SSE18.5 kmh SSE 15.0 mph24.1 kmh 29.35 in993.9 mb - 0.00 in0.0 mm 0.00 in0.0 mm
06:15 AM 51.4°F10.8°C 47.1°F8.4°C 85% 10.4 mph SE16.7 kmh SE 16.1 mph25.9 kmh 29.35 in993.9 mb - 0.00 in0.0 mm 0.00 in0.0 mm
06:20 AM 51.4°F10.8°C 47.1°F8.4°C 85% 11.5 mph S18.5 kmh S 15.0 mph24.1 kmh 29.35 in993.9 mb - 0.00 in0.0 mm 0.00 in0.0 mm
06:25 AM 51.4°F10.8°C 47.1°F8.4°C 85% 12.7 mph SE20.4 kmh SE 16.1 mph25.9 kmh 29.38 in994.9 mb - 0.00 in0.0 mm 0.00 in0.0 mm
06:30 AM 51.4°F10.8°C 47.1°F8.4°C 85% 11.5 mph S18.5 kmh S 16.1 mph25.9 kmh 29.38 in994.9 mb - 0.00 in0.0 mm 0.00 in0.0 mm
06:35 AM 51.4°F10.8°C 47.1°F8.4°C 85% 12.7 mph SE20.4 kmh SE 18.4 mph29.6 kmh 29.38 in994.9 mb - 0.00 in0.0 mm 0.00 in0.0 mm
06:40 AM 51.4°F10.8°C 47.1°F8.4°C 85% 11.5 mph SE18.5 kmh SE 19.6 mph31.5 kmh 29.38 in994.9 mb - 0.00 in0.0 mm 0.00 in0.0 mm
06:45 AM 51.4°F10.8°C 47.1°F8.4°C 85% 10.4 mph SE16.7 kmh SE 13.8 mph22.2 kmh 29.38 in994.9 mb - 0.00 in0.0 mm 0.00 in0.0 mm
06:50 AM 51.4°F10.8°C 47.1°F8.4°C 85% 11.5 mph SSE18.5 kmh SSE 18.4 mph29.6 kmh 29.38 in994.9 mb - 0.00 in0.0 mm 0.00 in0.0 mm
06:55 AM 51.6°F10.9°C 47.3°F8.5°C 85% 10.4 mph S16.7 kmh S 17.3 mph27.8 kmh 29.35 in993.9 mb - 0.00 in0.0 mm 0.00 in0.0 mm
07:00 AM 51.6°F10.9°C 47.3°F8.5°C 85% 9.2 mph SSE14.8 kmh SSE 11.5 mph18.5 kmh 29.35 in993.9 mb - 0.00 in0.0 mm 0.00 in0.0 mm
07:10 AM 52.0°F11.1°C 47.6°F8.7°C 85% 12.7 mph SSE20.4 kmh SSE 20.7 mph33.3 kmh 29.35 in993.9 mb - 0.00 in0.0 mm 0.00 in0.0 mm
07:15 AM 52.0°F11.1°C 47.6°F8.7°C 85% 11.5 mph SE18.5 kmh SE 16.1 mph25.9 kmh 29.35 in993.9 mb - 0.03 in0.8 mm 0.03 in0.8 mm
07:20 AM 52.2°F11.2°C 47.8°F8.8°C 85% 11.5 mph SE18.5 kmh SE 15.0 mph24.1 kmh 29.35 in993.9 mb - 0.03 in0.8 mm 0.03 in0.8 mm
07:25 AM 52.3°F11.3°C 48.0°F8.9°C 85% 11.5 mph SE18.5 kmh SE 12.7 mph20.4 kmh 29.35 in993.9 mb - 0.03 in0.8 mm 0.03 in0.8 mm
07:30 AM 52.5°F11.4°C 48.1°F8.9°C 85% 9.2 mph SE14.8 kmh SE 13.8 mph22.2 kmh 29.35 in993.9 mb - 0.03 in0.8 mm 0.03 in0.8 mm
07:35 AM 52.7°F11.5°C 48.3°F9.1°C 85% 13.8 mph S22.2 kmh S 18.4 mph29.6 kmh 29.35 in993.9 mb - 0.03 in0.8 mm 0.03 in0.8 mm
07:40 AM 52.9°F11.6°C 48.5°F9.2°C 85% 8.1 mph SSE13.0 kmh SSE 15.0 mph24.1 kmh 29.35 in993.9 mb - 0.03 in0.8 mm 0.03 in0.8 mm
07:45 AM 52.9°F11.6°C 48.5°F9.2°C 85% 10.4 mph SSE16.7 kmh SSE 16.1 mph25.9 kmh 29.35 in993.9 mb - 0.03 in0.8 mm 0.03 in0.8 mm
07:50 AM 53.1°F11.7°C 48.4°F9.1°C 84% 12.7 mph SE20.4 kmh SE 17.3 mph27.8 kmh 29.35 in993.9 mb - 0.03 in0.8 mm 0.03 in0.8 mm
07:55 AM 53.2°F11.8°C 48.5°F9.2°C 84% 12.7 mph SSE20.4 kmh SSE 18.4 mph29.6 kmh 29.29 in991.9 mb - 0.03 in0.8 mm 0.03 in0.8 mm
08:00 AM 53.4°F11.9°C 48.7°F9.3°C 84% 11.5 mph S18.5 kmh S 17.3 mph27.8 kmh 29.29 in991.9 mb - 0.03 in0.8 mm 0.03 in0.8 mm
08:10 AM 53.6°F12.0°C 48.6°F9.2°C 83% 12.7 mph S20.4 kmh S 16.1 mph25.9 kmh 29.32 in992.9 mb - 0.03 in0.8 mm 0.03 in0.8 mm
08:15 AM 53.8°F12.1°C 48.4°F9.1°C 82% 13.8 mph SSE22.2 kmh SSE 24.2 mph38.9 kmh 29.32 in992.9 mb - 0.00 in0.0 mm 0.03 in0.8 mm
08:20 AM 53.8°F12.1°C 48.4°F9.1°C 82% 12.7 mph SE20.4 kmh SE 18.4 mph29.6 kmh 29.32 in992.9 mb - 0.00 in0.0 mm 0.03 in0.8 mm
08:25 AM 53.8°F12.1°C 48.4°F9.1°C 82% 11.5 mph SSE18.5 kmh SSE 13.8 mph22.2 kmh 29.29 in991.9 mb - 0.00 in0.0 mm 0.03 in0.8 mm
08:30 AM 53.8°F12.1°C 48.4°F9.1°C 82% 11.5 mph SSE18.5 kmh SSE 13.8 mph22.2 kmh 29.29 in991.9 mb - 0.00 in0.0 mm 0.03 in0.8 mm
08:35 AM 53.8°F12.1°C 48.4°F9.1°C 82% 10.4 mph SSE16.7 kmh SSE 16.1 mph25.9 kmh 29.29 in991.9 mb - 0.00 in0.0 mm 0.03 in0.8 mm
08:40 AM 54.0°F12.2°C 48.6°F9.2°C 82% 11.5 mph SSE18.5 kmh SSE 17.3 mph27.8 kmh 29.32 in992.9 mb - 0.00 in0.0 mm 0.03 in0.8 mm
08:45 AM 54.0°F12.2°C 48.6°F9.2°C 82% 8.1 mph SSE13.0 kmh SSE 9.2 mph14.8 kmh 29.32 in992.9 mb - 0.00 in0.0 mm 0.03 in0.8 mm
08:50 AM 54.1°F12.3°C 48.8°F9.3°C 82% 8.1 mph S13.0 kmh S 9.2 mph14.8 kmh 29.32 in992.9 mb - 0.00 in0.0 mm 0.03 in0.8 mm
08:55 AM 54.3°F12.4°C 49.0°F9.4°C 82% 9.2 mph S14.8 kmh S 13.8 mph22.2 kmh 29.29 in991.9 mb - 0.00 in0.0 mm 0.03 in0.8 mm
09:00 AM 54.7°F12.6°C 49.3°F9.6°C 82% 8.1 mph SE13.0 kmh SE 9.2 mph14.8 kmh 29.29 in991.9 mb - 0.00 in0.0 mm 0.03 in0.8 mm
09:10 AM 55.4°F13.0°C 49.7°F9.8°C 81% 9.2 mph SE14.8 kmh SE 12.7 mph20.4 kmh 29.32 in992.9 mb - 0.00 in0.0 mm 0.03 in0.8 mm
09:15 AM 55.6°F13.1°C 49.8°F9.9°C 81% 6.9 mph S11.1 kmh S 11.5 mph18.5 kmh 29.32 in992.9 mb - 0.00 in0.0 mm 0.03 in0.8 mm
09:20 AM 55.8°F13.2°C 49.7°F9.8°C 80% 9.2 mph S14.8 kmh S 11.5 mph18.5 kmh 29.32 in992.9 mb - 0.00 in0.0 mm 0.03 in0.8 mm
09:25 AM 56.3°F13.5°C 50.2°F10.1°C 80% 6.9 mph S11.1 kmh S 11.5 mph18.5 kmh 29.32 in992.9 mb - 0.00 in0.0 mm 0.03 in0.8 mm
09:30 AM 56.7°F13.7°C 50.2°F10.1°C 79% 8.1 mph S13.0 kmh S 9.2 mph14.8 kmh 29.32 in992.9 mb - 0.00 in0.0 mm 0.03 in0.8 mm
09:35 AM 56.8°F13.8°C 50.4°F10.2°C 79% 8.1 mph SSE13.0 kmh SSE 9.2 mph14.8 kmh 29.32 in992.9 mb - 0.00 in0.0 mm 0.03 in0.8 mm
09:40 AM 57.2°F14.0°C 50.4°F10.2°C 78% 8.1 mph S13.0 kmh S 11.5 mph18.5 kmh 29.35 in993.9 mb - 0.00 in0.0 mm 0.03 in0.8 mm
09:45 AM 58.2°F14.6°C 51.3°F10.7°C 78% 6.9 mph S11.1 kmh S 8.1 mph13.0 kmh 29.35 in993.9 mb - 0.00 in0.0 mm 0.03 in0.8 mm
09:50 AM 58.9°F14.9°C 51.7°F10.9°C 77% 5.8 mph SE9.3 kmh SE 8.1 mph13.0 kmh 29.35 in993.9 mb - 0.00 in0.0 mm 0.03 in0.8 mm
09:55 AM 58.3°F14.6°C 50.1°F10.1°C 74% 6.9 mph SE11.1 kmh SE 8.1 mph13.0 kmh 29.35 in993.9 mb - 0.00 in0.0 mm 0.03 in0.8 mm
10:00 AM 57.7°F14.3°C 49.5°F9.7°C 74% 4.6 mph SSE7.4 kmh SSE 8.1 mph13.0 kmh 29.35 in993.9 mb - 0.00 in0.0 mm 0.03 in0.8 mm
10:10 AM 58.2°F14.6°C 50.0°F10.0°C 74% 4.6 mph S7.4 kmh S 9.2 mph14.8 kmh 29.35 in993.9 mb - 0.00 in0.0 mm 0.03 in0.8 mm
10:15 AM 58.2°F14.6°C 49.9°F9.9°C 74% 4.6 mph SE7.4 kmh SE 5.8 mph9.3 kmh 29.35 in993.9 mb - 0.00 in0.0 mm 0.03 in0.8 mm
10:20 AM 57.9°F14.4°C 49.7°F9.8°C 74% 5.8 mph SE9.3 kmh SE 6.9 mph11.1 kmh 29.35 in993.9 mb - 0.00 in0.0 mm 0.03 in0.8 mm
10:25 AM 59.2°F15.1°C 50.9°F10.5°C 74% 6.9 mph S11.1 kmh S 9.2 mph14.8 kmh 29.35 in993.9 mb - 0.00 in0.0 mm 0.03 in0.8 mm
10:30 AM 61.3°F16.3°C 52.9°F11.6°C 74% 5.8 mph SSE9.3 kmh SSE 9.2 mph14.8 kmh 29.35 in993.9 mb - 0.00 in0.0 mm 0.03 in0.8 mm
10:35 AM 61.9°F16.6°C 52.8°F11.6°C 72% 8.1 mph SSW13.0 kmh SSW 10.4 mph16.7 kmh 29.35 in993.9 mb - 0.00 in0.0 mm 0.03 in0.8 mm
10:40 AM 61.7°F16.5°C 51.4°F10.8°C 69% 6.9 mph SSE11.1 kmh SSE 12.7 mph20.4 kmh 29.38 in994.9 mb - 0.00 in0.0 mm 0.03 in0.8 mm
10:50 AM 61.9°F16.6°C 51.2°F10.7°C 68% 8.1 mph S13.0 kmh S 12.7 mph20.4 kmh 29.38 in994.9 mb - 0.00 in0.0 mm 0.03 in0.8 mm
10:55 AM 61.2°F16.2°C 50.5°F10.3°C 68% 4.6 mph S7.4 kmh S 10.4 mph16.7 kmh 29.38 in994.9 mb - 0.00 in0.0 mm 0.03 in0.8 mm
11:00 AM 60.5°F15.8°C 49.5°F9.7°C 67% 5.8 mph S9.3 kmh S 9.2 mph14.8 kmh 29.38 in994.9 mb - 0.00 in0.0 mm 0.03 in0.8 mm
11:10 AM 60.1°F15.6°C 48.3°F9.1°C 65% 6.9 mph S11.1 kmh S 8.1 mph13.0 kmh 29.38 in994.9 mb - 0.00 in0.0 mm 0.03 in0.8 mm
11:15 AM 60.0°F15.6°C 48.6°F9.2°C 66% 5.8 mph S9.3 kmh S 6.9 mph11.1 kmh 29.38 in994.9 mb - 0.00 in0.0 mm 0.03 in0.8 mm
11:20 AM 60.1°F15.6°C 48.3°F9.1°C 65% 4.6 mph SSE7.4 kmh SSE 8.1 mph13.0 kmh 29.38 in994.9 mb - 0.00 in0.0 mm 0.03 in0.8 mm
11:25 AM 59.9°F15.5°C 47.7°F8.7°C 64% 6.9 mph S11.1 kmh S 9.2 mph14.8 kmh 29.35 in993.9 mb - 0.00 in0.0 mm 0.03 in0.8 mm
11:30 AM 59.8°F15.4°C 47.6°F8.7°C 64% 6.9 mph SSE11.1 kmh SSE 10.4 mph16.7 kmh 29.35 in993.9 mb - 0.00 in0.0 mm 0.03 in0.8 mm
11:35 AM 59.5°F15.3°C 47.3°F8.5°C 64% 6.9 mph S11.1 kmh S 11.5 mph18.5 kmh 29.35 in993.9 mb - 0.00 in0.0 mm 0.03 in0.8 mm
11:40 AM 59.6°F15.3°C 46.6°F8.1°C 62% 5.8 mph S9.3 kmh S 6.9 mph11.1 kmh 29.35 in993.9 mb - 0.00 in0.0 mm 0.03 in0.8 mm
11:45 AM 59.5°F15.3°C 46.5°F8.1°C 62% 5.8 mph S9.3 kmh S 6.9 mph11.1 kmh 29.35 in993.9 mb - 0.00 in0.0 mm 0.03 in0.8 mm
11:50 AM 59.4°F15.2°C 46.8°F8.2°C 63% 4.6 mph S7.4 kmh S 9.2 mph14.8 kmh 29.35 in993.9 mb - 0.00 in0.0 mm 0.03 in0.8 mm
11:55 AM 59.2°F15.1°C 46.6°F8.1°C 63% 4.6 mph SSE7.4 kmh SSE 5.8 mph9.3 kmh 29.38 in994.9 mb - 0.00 in0.0 mm 0.03 in0.8 mm
12:00 PM 59.0°F15.0°C 46.8°F8.2°C 64% 4.6 mph S7.4 kmh S 5.8 mph9.3 kmh 29.38 in994.9 mb - 0.00 in0.0 mm 0.03 in0.8 mm
12:10 PM 58.7°F14.8°C 47.0°F8.3°C 65% 4.6 mph S7.4 kmh S 5.8 mph9.3 kmh 29.38 in994.9 mb - 0.00 in0.0 mm 0.03 in0.8 mm
12:15 PM 58.6°F14.8°C 46.9°F8.3°C 65% 4.6 mph SW7.4 kmh SW 5.8 mph9.3 kmh 29.38 in994.9 mb - 0.00 in0.0 mm 0.03 in0.8 mm
12:20 PM 58.6°F14.8°C 47.3°F8.5°C 66% 3.5 mph S5.6 kmh S 4.6 mph7.4 kmh 29.38 in994.9 mb - 0.00 in0.0 mm 0.03 in0.8 mm
12:25 PM 58.6°F14.8°C 47.3°F8.5°C 66% 3.5 mph SSE5.6 kmh SSE 4.6 mph7.4 kmh 29.38 in994.9 mb - 0.00 in0.0 mm 0.03 in0.8 mm
12:30 PM 58.6°F14.8°C 47.3°F8.5°C 66% 4.6 mph SSE7.4 kmh SSE 9.2 mph14.8 kmh 29.38 in994.9 mb - 0.00 in0.0 mm 0.03 in0.8 mm
12:35 PM 58.1°F14.5°C 46.8°F8.2°C 66% 3.5 mph SE5.6 kmh SE 4.6 mph7.4 kmh 29.38 in994.9 mb - 0.00 in0.0 mm 0.03 in0.8 mm
12:40 PM 57.6°F14.2°C 46.7°F8.2°C 67% 3.5 mph S5.6 kmh S 5.8 mph9.3 kmh 29.35 in993.9 mb - 0.00 in0.0 mm 0.03 in0.8 mm
12:45 PM 57.4°F14.1°C 46.9°F8.3°C 68% 3.5 mph SE5.6 kmh SE 4.6 mph7.4 kmh 29.35 in993.9 mb - 0.00 in0.0 mm 0.03 in0.8 mm
12:50 PM 57.0°F13.9°C 46.9°F8.3°C 69% 3.5 mph SSE5.6 kmh SSE 5.8 mph9.3 kmh 29.35 in993.9 mb - 0.00 in0.0 mm 0.03 in0.8 mm
12:55 PM 56.8°F13.8°C 46.8°F8.2°C 69% 2.3 mph S3.7 kmh S 3.5 mph5.6 kmh 29.35 in993.9 mb - 0.00 in0.0 mm 0.03 in0.8 mm
01:00 PM 56.7°F13.7°C 47.0°F8.3°C 70% 1.2 mph S1.9 kmh S 3.5 mph5.6 kmh 29.35 in993.9 mb - 0.00 in0.0 mm 0.03 in0.8 mm
01:10 PM 56.5°F13.6°C 46.8°F8.2°C 70% 2.3 mph SE3.7 kmh SE 3.5 mph5.6 kmh 29.35 in993.9 mb - 0.00 in0.0 mm 0.03 in0.8 mm
01:15 PM 56.3°F13.5°C 47.0°F8.3°C 71% 3.5 mph SE5.6 kmh SE 5.8 mph9.3 kmh 29.35 in993.9 mb - 0.00 in0.0 mm 0.03 in0.8 mm
01:20 PM 56.1°F13.4°C 46.8°F8.2°C 71% 3.5 mph SSE5.6 kmh SSE 4.6 mph7.4 kmh 29.35 in993.9 mb - 0.00 in0.0 mm 0.03 in0.8 mm
01:25 PM 55.9°F13.3°C 46.7°F8.2°C 71% 4.6 mph SSE7.4 kmh SSE 5.8 mph9.3 kmh 29.29 in991.9 mb - 0.00 in0.0 mm 0.03 in0.8 mm
01:30 PM 55.8°F13.2°C 46.9°F8.3°C 72% 2.3 mph S3.7 kmh S 2.3 mph3.7 kmh 29.29 in991.9 mb - 0.00 in0.0 mm 0.03 in0.8 mm
01:35 PM 55.6°F13.1°C 46.7°F8.2°C 72% 3.5 mph S5.6 kmh S 5.8 mph9.3 kmh 29.29 in991.9 mb - 0.00 in0.0 mm 0.03 in0.8 mm
01:40 PM 55.6°F13.1°C 46.7°F8.2°C 72% 3.5 mph S5.6 kmh S 6.9 mph11.1 kmh 29.32 in992.9 mb - 0.00 in0.0 mm 0.03 in0.8 mm
01:45 PM 55.8°F13.2°C 47.2°F8.4°C 73% 4.6 mph S7.4 kmh S 5.8 mph9.3 kmh 29.32 in992.9 mb - 0.00 in0.0 mm 0.03 in0.8 mm
01:50 PM 55.8°F13.2°C 47.2°F8.4°C 73% 3.5 mph SW5.6 kmh SW 6.9 mph11.1 kmh 29.32 in992.9 mb - 0.00 in0.0 mm 0.03 in0.8 mm
01:55 PM 55.8°F13.2°C 47.6°F8.7°C 74% 3.5 mph SW5.6 kmh SW 3.5 mph5.6 kmh 29.32 in992.9 mb - 0.00 in0.0 mm 0.03 in0.8 mm
02:00 PM 55.8°F13.2°C 47.6°F8.7°C 74% 4.6 mph SW7.4 kmh SW 8.1 mph13.0 kmh 29.32 in992.9 mb - 0.00 in0.0 mm 0.03 in0.8 mm
02:10 PM 55.6°F13.1°C 47.8°F8.8°C 75% 4.6 mph SW7.4 kmh SW 6.9 mph11.1 kmh 29.32 in992.9 mb - 0.00 in0.0 mm 0.03 in0.8 mm
02:15 PM 55.6°F13.1°C 48.1°F8.9°C 76% 2.3 mph SSW3.7 kmh SSW 3.5 mph5.6 kmh 29.32 in992.9 mb - 0.00 in0.0 mm 0.03 in0.8 mm
02:20 PM 55.4°F13.0°C 48.0°F8.9°C 76% 4.6 mph S7.4 kmh S 4.6 mph7.4 kmh 29.32 in992.9 mb - 0.00 in0.0 mm 0.03 in0.8 mm
02:25 PM 55.2°F12.9°C 48.1°F8.9°C 77% 3.5 mph SSW5.6 kmh SSW 3.5 mph5.6 kmh 29.29 in991.9 mb - 0.00 in0.0 mm 0.03 in0.8 mm
02:30 PM 55.0°F12.8°C 47.6°F8.7°C 76% 2.3 mph SSW3.7 kmh SSW 3.5 mph5.6 kmh 29.29 in991.9 mb - 0.00 in0.0 mm 0.03 in0.8 mm
02:35 PM 54.9°F12.7°C 47.8°F8.8°C 77% 3.5 mph S5.6 kmh S 5.8 mph9.3 kmh 29.29 in991.9 mb - 0.00 in0.0 mm 0.03 in0.8 mm
02:40 PM 54.9°F12.7°C 47.8°F8.8°C 77% 3.5 mph SW5.6 kmh SW 4.6 mph7.4 kmh 29.29 in991.9 mb - 0.00 in0.0 mm 0.03 in0.8 mm
02:45 PM 54.7°F12.6°C 47.6°F8.7°C 77% 2.3 mph SW3.7 kmh SW 3.5 mph5.6 kmh 29.29 in991.9 mb - 0.00 in0.0 mm 0.03 in0.8 mm
02:50 PM 54.7°F12.6°C 47.6°F8.7°C 77% 1.2 mph SSW1.9 kmh SSW 3.5 mph5.6 kmh 29.29 in991.9 mb - 0.00 in0.0 mm 0.03 in0.8 mm
02:55 PM 54.7°F12.6°C 47.6°F8.7°C 77% 1.2 mph SSW1.9 kmh SSW 2.3 mph3.7 kmh 29.29 in991.9 mb - 0.00 in0.0 mm 0.03 in0.8 mm
03:00 PM 54.5°F12.5°C 47.4°F8.6°C 77% Calm Calm -- 29.29 in991.9 mb - 0.00 in0.0 mm 0.03 in0.8 mm
03:10 PM 54.5°F12.5°C 47.8°F8.8°C 78% 2.3 mph WSW3.7 kmh WSW 3.5 mph5.6 kmh 29.26 in990.9 mb - 0.00 in0.0 mm 0.03 in0.8 mm
03:15 PM 54.5°F12.5°C 47.8°F8.8°C 78% 2.3 mph WSW3.7 kmh WSW 2.3 mph3.7 kmh 29.26 in990.9 mb - 0.00 in0.0 mm 0.03 in0.8 mm
03:20 PM 54.5°F12.5°C 47.8°F8.8°C 78% Calm Calm 1.2 mph1.9 kmh 29.26 in990.9 mb - 0.00 in0.0 mm 0.03 in0.8 mm
03:25 PM 54.5°F12.5°C 47.8°F8.8°C 78% 2.3 mph SW3.7 kmh SW 2.3 mph3.7 kmh 29.23 in989.8 mb - 0.00 in0.0 mm 0.03 in0.8 mm
03:30 PM 54.5°F12.5°C 47.8°F8.8°C 78% Calm Calm -- 29.23 in989.8 mb - 0.00 in0.0 mm 0.03 in0.8 mm
03:35 PM 54.5°F12.5°C 48.1°F8.9°C 79% 1.2 mph S1.9 kmh S 2.3 mph3.7 kmh 29.23 in989.8 mb - 0.00 in0.0 mm 0.03 in0.8 mm
03:40 PM 54.5°F12.5°C 48.1°F8.9°C 79% 1.2 mph SSE1.9 kmh SSE 2.3 mph3.7 kmh 29.29 in991.9 mb - 0.00 in0.0 mm 0.03 in0.8 mm
03:45 PM 54.5°F12.5°C 48.1°F8.9°C 79% 1.2 mph SW1.9 kmh SW 3.5 mph5.6 kmh 29.29 in991.9 mb - 0.00 in0.0 mm 0.03 in0.8 mm
03:50 PM 54.4°F12.4°C 48.0°F8.9°C 79% 3.5 mph SSW5.6 kmh SSW 4.6 mph7.4 kmh 29.29 in991.9 mb - 0.00 in0.0 mm 0.03 in0.8 mm
03:55 PM 54.3°F12.4°C 47.9°F8.8°C 79% 3.5 mph SW5.6 kmh SW 4.6 mph7.4 kmh 29.26 in990.9 mb - 0.00 in0.0 mm 0.03 in0.8 mm
04:00 PM 54.3°F12.4°C 48.3°F9.1°C 80% 4.6 mph S7.4 kmh S 5.8 mph9.3 kmh 29.26 in990.9 mb - 0.00 in0.0 mm 0.03 in0.8 mm
04:10 PM 54.2°F12.3°C 48.2°F9.0°C 80% 4.6 mph S7.4 kmh S 6.9 mph11.1 kmh 29.26 in990.9 mb - 0.05 in1.3 mm 0.09 in2.3 mm
04:15 PM 54.1°F12.3°C 48.4°F9.1°C 81% 3.5 mph S5.6 kmh S 6.9 mph11.1 kmh 29.26 in990.9 mb - 0.05 in1.3 mm 0.09 in2.3 mm
04:20 PM 54.1°F12.3°C 48.4°F9.1°C 81% 4.6 mph SSE7.4 kmh SSE 6.9 mph11.1 kmh 29.26 in990.9 mb - 0.05 in1.3 mm 0.09 in2.3 mm
04:25 PM 54.1°F12.3°C 48.4°F9.1°C 81% 2.3 mph S3.7 kmh S 3.5 mph5.6 kmh 29.26 in990.9 mb - 0.07 in1.8 mm 0.11 in2.8 mm
04:30 PM 54.1°F12.3°C 48.4°F9.1°C 81% 3.5 mph S5.6 kmh S 4.6 mph7.4 kmh 29.26 in990.9 mb - 0.07 in1.8 mm 0.11 in2.8 mm
04:35 PM 54.0°F12.2°C 48.3°F9.1°C 81% 2.3 mph S3.7 kmh S 4.6 mph7.4 kmh 29.26 in990.9 mb - 0.07 in1.8 mm 0.11 in2.8 mm
04:40 PM 54.0°F12.2°C 48.3°F9.1°C 81% 2.3 mph S3.7 kmh S 2.3 mph3.7 kmh 29.26 in990.9 mb - 0.07 in1.8 mm 0.11 in2.8 mm
04:45 PM 54.0°F12.2°C 48.3°F9.1°C 81% 2.3 mph S3.7 kmh S 2.3 mph3.7 kmh 29.26 in990.9 mb - 0.07 in1.8 mm 0.11 in2.8 mm
04:50 PM 54.0°F12.2°C 48.6°F9.2°C 82% 1.2 mph S1.9 kmh S 2.3 mph3.7 kmh 29.26 in990.9 mb - 0.07 in1.8 mm 0.11 in2.8 mm
04:55 PM 54.0°F12.2°C 48.6°F9.2°C 82% 2.3 mph SSE3.7 kmh SSE 3.5 mph5.6 kmh 29.26 in990.9 mb - 0.07 in1.8 mm 0.11 in2.8 mm
05:00 PM 53.8°F12.1°C 48.4°F9.1°C 82% 2.3 mph SSW3.7 kmh SSW 2.3 mph3.7 kmh 29.26 in990.9 mb - 0.07 in1.8 mm 0.11 in2.8 mm
05:10 PM 53.8°F12.1°C 48.4°F9.1°C 82% 2.3 mph S3.7 kmh S 3.5 mph5.6 kmh 29.26 in990.9 mb - 0.02 in0.5 mm 0.11 in2.8 mm
05:15 PM 53.8°F12.1°C 48.4°F9.1°C 82% 3.5 mph S5.6 kmh S 4.6 mph7.4 kmh 29.26 in990.9 mb - 0.02 in0.5 mm 0.11 in2.8 mm
05:20 PM 53.8°F12.1°C 48.4°F9.1°C 82% 4.6 mph SSW7.4 kmh SSW 6.9 mph11.1 kmh 29.26 in990.9 mb - 0.02 in0.5 mm 0.11 in2.8 mm
05:25 PM 53.8°F12.1°C 48.4°F9.1°C 82% 3.5 mph WSW5.6 kmh WSW 3.5 mph5.6 kmh 29.29 in991.9 mb - 0.00 in0.0 mm 0.11 in2.8 mm
05:30 PM 53.8°F12.1°C 48.4°F9.1°C 82% 3.5 mph WSW5.6 kmh WSW 4.6 mph7.4 kmh 29.29 in991.9 mb - 0.00 in0.0 mm 0.11 in2.8 mm
05:35 PM 53.7°F12.1°C 48.3°F9.1°C 82% 2.3 mph SSW3.7 kmh SSW 2.3 mph3.7 kmh 29.29 in991.9 mb - 0.00 in0.0 mm 0.11 in2.8 mm
05:40 PM 53.6°F12.0°C 48.2°F9.0°C 82% 2.3 mph SSW3.7 kmh SSW 4.6 mph7.4 kmh 29.32 in992.9 mb - 0.00 in0.0 mm 0.11 in2.8 mm
05:45 PM 53.6°F12.0°C 48.2°F9.0°C 82% 3.5 mph SSW5.6 kmh SSW 4.6 mph7.4 kmh 29.32 in992.9 mb - 0.00 in0.0 mm 0.11 in2.8 mm
05:50 PM 53.6°F12.0°C 48.2°F9.0°C 82% 3.5 mph SSW5.6 kmh SSW 3.5 mph5.6 kmh 29.32 in992.9 mb - 0.00 in0.0 mm 0.11 in2.8 mm
05:55 PM 53.6°F12.0°C 48.2°F9.0°C 82% 3.5 mph S5.6 kmh S 4.6 mph7.4 kmh 29.32 in992.9 mb - 0.00 in0.0 mm 0.11 in2.8 mm
06:00 PM 53.8°F12.1°C 48.7°F9.3°C 83% 2.3 mph SSW3.7 kmh SSW 3.5 mph5.6 kmh 29.32 in992.9 mb - 0.00 in0.0 mm 0.11 in2.8 mm
06:10 PM 53.8°F12.1°C 48.7°F9.3°C 83% 3.5 mph S5.6 kmh S 3.5 mph5.6 kmh 29.29 in991.9 mb - 0.00 in0.0 mm 0.11 in2.8 mm
06:15 PM 53.8°F12.1°C 48.8°F9.3°C 83% 3.5 mph SW5.6 kmh SW 6.9 mph11.1 kmh 29.29 in991.9 mb - 0.00 in0.0 mm 0.11 in2.8 mm
06:20 PM 54.0°F12.2°C 48.9°F9.4°C 83% 3.5 mph SW5.6 kmh SW 4.6 mph7.4 kmh 29.29 in991.9 mb - 0.00 in0.0 mm 0.11 in2.8 mm
06:25 PM 54.0°F12.2°C 48.9°F9.4°C 83% 4.6 mph SW7.4 kmh SW 5.8 mph9.3 kmh 29.32 in992.9 mb - 0.00 in0.0 mm 0.11 in2.8 mm
06:30 PM 54.0°F12.2°C 48.9°F9.4°C 83% 3.5 mph WSW5.6 kmh WSW 5.8 mph9.3 kmh 29.32 in992.9 mb - 0.00 in0.0 mm 0.11 in2.8 mm
06:35 PM 54.1°F12.3°C 49.1°F9.5°C 83% 4.6 mph WSW7.4 kmh WSW 8.1 mph13.0 kmh 29.32 in992.9 mb - 0.00 in0.0 mm 0.11 in2.8 mm
06:40 PM 54.3°F12.4°C 49.6°F9.8°C 84% 4.6 mph WSW7.4 kmh WSW 5.8 mph9.3 kmh 29.32 in992.9 mb - 0.00 in0.0 mm 0.11 in2.8 mm
06:45 PM 54.5°F12.5°C 49.7°F9.8°C 84% 5.8 mph WSW9.3 kmh WSW 8.1 mph13.0 kmh 29.32 in992.9 mb - 0.00 in0.0 mm 0.11 in2.8 mm
06:50 PM 54.5°F12.5°C 49.8°F9.9°C 84% 5.8 mph SW9.3 kmh SW 8.1 mph13.0 kmh 29.32 in992.9 mb - 0.00 in0.0 mm 0.11 in2.8 mm
06:55 PM 54.5°F12.5°C 49.8°F9.9°C 84% 3.5 mph WSW5.6 kmh WSW 5.8 mph9.3 kmh 29.32 in992.9 mb - 0.00 in0.0 mm 0.11 in2.8 mm
07:00 PM 54.5°F12.5°C 49.8°F9.9°C 84% 4.6 mph WSW7.4 kmh WSW 8.1 mph13.0 kmh 29.32 in992.9 mb - 0.00 in0.0 mm 0.11 in2.8 mm
07:10 PM 54.7°F12.6°C 49.9°F9.9°C 84% 4.6 mph SW7.4 kmh SW 5.8 mph9.3 kmh 29.32 in992.9 mb - 0.00 in0.0 mm 0.11 in2.8 mm
07:15 PM 54.7°F12.6°C 49.9°F9.9°C 84% 4.6 mph SW7.4 kmh SW 8.1 mph13.0 kmh 29.32 in992.9 mb - 0.00 in0.0 mm 0.11 in2.8 mm
07:20 PM 54.7°F12.6°C 49.9°F9.9°C 84% 4.6 mph SW7.4 kmh SW 5.8 mph9.3 kmh 29.32 in992.9 mb - 0.00 in0.0 mm 0.11 in2.8 mm
07:25 PM 54.7°F12.6°C 49.9°F9.9°C 84% 3.5 mph W5.6 kmh W 8.1 mph13.0 kmh 29.35 in993.9 mb - 0.00 in0.0 mm 0.11 in2.8 mm
07:30 PM 54.7°F12.6°C 49.9°F9.9°C 84% 4.6 mph SSW7.4 kmh SSW 9.2 mph14.8 kmh 29.35 in993.9 mb - 0.00 in0.0 mm 0.11 in2.8 mm
07:35 PM 54.7°F12.6°C 50.0°F10.0°C 84% 6.9 mph SW11.1 kmh SW 6.9 mph11.1 kmh 29.35 in993.9 mb - 0.00 in0.0 mm 0.11 in2.8 mm
07:40 PM 54.7°F12.6°C 50.0°F10.0°C 84% 4.6 mph SW7.4 kmh SW 5.8 mph9.3 kmh 29.38 in994.9 mb - 0.00 in0.0 mm 0.11 in2.8 mm
07:45 PM 54.7°F12.6°C 50.0°F10.0°C 84% 3.5 mph WSW5.6 kmh WSW 8.1 mph13.0 kmh 29.38 in994.9 mb - 0.00 in0.0 mm 0.11 in2.8 mm
07:50 PM 54.7°F12.6°C 49.9°F9.9°C 84% 5.8 mph SW9.3 kmh SW 8.1 mph13.0 kmh 29.38 in994.9 mb - 0.00 in0.0 mm 0.11 in2.8 mm
07:55 PM 54.7°F12.6°C 49.9°F9.9°C 84% 4.6 mph SW7.4 kmh SW 5.8 mph9.3 kmh 29.38 in994.9 mb - 0.00 in0.0 mm 0.11 in2.8 mm
08:00 PM 54.7°F12.6°C 49.9°F9.9°C 84% 3.5 mph SW5.6 kmh SW 5.8 mph9.3 kmh 29.38 in994.9 mb - 0.00 in0.0 mm 0.11 in2.8 mm
08:10 PM 54.7°F12.6°C 49.9°F9.9°C 84% 6.9 mph WSW11.1 kmh WSW 9.2 mph14.8 kmh 29.38 in994.9 mb - 0.00 in0.0 mm 0.11 in2.8 mm
08:15 PM 54.9°F12.7°C 50.1°F10.1°C 84% 6.9 mph WSW11.1 kmh WSW 10.4 mph16.7 kmh 29.38 in994.9 mb - 0.00 in0.0 mm 0.11 in2.8 mm
08:20 PM 54.9°F12.7°C 50.1°F10.1°C 84% 4.6 mph WSW7.4 kmh WSW 9.2 mph14.8 kmh 29.38 in994.9 mb - 0.00 in0.0 mm 0.11 in2.8 mm
08:25 PM 55.1°F12.8°C 50.3°F10.2°C 84% 10.4 mph W16.7 kmh W 15.0 mph24.1 kmh 29.41 in995.9 mb - 0.00 in0.0 mm 0.11 in2.8 mm
08:30 PM 55.2°F12.9°C 50.1°F10.1°C 83% 5.8 mph W9.3 kmh W 9.2 mph14.8 kmh 29.41 in995.9 mb - 0.00 in0.0 mm 0.11 in2.8 mm
08:35 PM 55.2°F12.9°C 50.1°F10.1°C 83% 6.9 mph WSW11.1 kmh WSW 10.4 mph16.7 kmh 29.41 in995.9 mb - 0.00 in0.0 mm 0.11 in2.8 mm
08:40 PM 55.2°F12.9°C 50.1°F10.1°C 83% 5.8 mph WSW9.3 kmh WSW 8.1 mph13.0 kmh 29.38 in994.9 mb - 0.00 in0.0 mm 0.11 in2.8 mm
08:45 PM 55.0°F12.8°C 50.0°F10.0°C 83% 6.9 mph NW11.1 kmh NW 10.4 mph16.7 kmh 29.38 in994.9 mb - 0.00 in0.0 mm 0.11 in2.8 mm
08:50 PM 55.0°F12.8°C 49.6°F9.8°C 82% 4.6 mph WSW7.4 kmh WSW 6.9 mph11.1 kmh 29.38 in994.9 mb - 0.00 in0.0 mm 0.11 in2.8 mm
08:55 PM 54.9°F12.7°C 49.5°F9.7°C 82% 5.8 mph WSW9.3 kmh WSW 9.2 mph14.8 kmh 29.38 in994.9 mb - 0.00 in0.0 mm 0.11 in2.8 mm
09:00 PM 54.9°F12.7°C 49.5°F9.7°C 82% 6.9 mph W11.1 kmh W 9.2 mph14.8 kmh 29.38 in994.9 mb - 0.00 in0.0 mm 0.11 in2.8 mm
09:10 PM 55.0°F12.8°C 49.3°F9.6°C 81% 6.9 mph WSW11.1 kmh WSW 9.2 mph14.8 kmh 29.41 in995.9 mb - 0.00 in0.0 mm 0.11 in2.8 mm
09:15 PM 55.2°F12.9°C 49.4°F9.7°C 81% 6.9 mph SW11.1 kmh SW 10.4 mph16.7 kmh 29.41 in995.9 mb - 0.00 in0.0 mm 0.11 in2.8 mm
09:20 PM 55.2°F12.9°C 49.2°F9.6°C 80% 8.1 mph SW13.0 kmh SW 12.7 mph20.4 kmh 29.41 in995.9 mb - 0.00 in0.0 mm 0.11 in2.8 mm
09:25 PM 55.2°F12.9°C 48.8°F9.3°C 79% 6.9 mph SW11.1 kmh SW 12.7 mph20.4 kmh 29.44 in997.0 mb - 0.00 in0.0 mm 0.11 in2.8 mm
09:30 PM 55.4°F13.0°C 48.7°F9.3°C 78% 9.2 mph WSW14.8 kmh WSW 12.7 mph20.4 kmh 29.44 in997.0 mb - 0.00 in0.0 mm 0.11 in2.8 mm
09:35 PM 55.2°F12.9°C 48.5°F9.2°C 78% 5.8 mph WSW9.3 kmh WSW 10.4 mph16.7 kmh 29.44 in997.0 mb - 0.00 in0.0 mm 0.11 in2.8 mm
09:40 PM 55.2°F12.9°C 48.1°F8.9°C 77% 6.9 mph SW11.1 kmh SW 11.5 mph18.5 kmh 29.44 in997.0 mb - 0.00 in0.0 mm 0.11 in2.8 mm
09:45 PM 55.2°F12.9°C 48.1°F8.9°C 77% 8.1 mph SW13.0 kmh SW 11.5 mph18.5 kmh 29.44 in997.0 mb - 0.00 in0.0 mm 0.11 in2.8 mm
09:50 PM 55.2°F12.9°C 47.7°F8.7°C 76% 5.8 mph SSW9.3 kmh SSW 10.4 mph16.7 kmh 29.44 in997.0 mb - 0.00 in0.0 mm 0.11 in2.8 mm
09:55 PM 55.0°F12.8°C 47.6°F8.7°C 76% 8.1 mph WSW13.0 kmh WSW 10.4 mph16.7 kmh 29.44 in997.0 mb - 0.00 in0.0 mm 0.11 in2.8 mm
10:00 PM 55.2°F12.9°C 47.4°F8.6°C 75% 8.1 mph SW13.0 kmh SW 9.2 mph14.8 kmh 29.44 in997.0 mb - 0.00 in0.0 mm 0.11 in2.8 mm
10:10 PM 55.2°F12.9°C 47.4°F8.6°C 75% 5.8 mph SSW9.3 kmh SSW 9.2 mph14.8 kmh 29.41 in995.9 mb - 0.00 in0.0 mm 0.11 in2.8 mm
10:15 PM 55.0°F12.8°C 46.9°F8.3°C 74% 8.1 mph SW13.0 kmh SW 12.7 mph20.4 kmh 29.41 in995.9 mb - 0.00 in0.0 mm 0.11 in2.8 mm
10:20 PM 55.0°F12.8°C 46.9°F8.3°C 74% 9.2 mph WSW14.8 kmh WSW 13.8 mph22.2 kmh 29.41 in995.9 mb - 0.00 in0.0 mm 0.11 in2.8 mm
10:25 PM 55.0°F12.8°C 46.9°F8.3°C 74% 9.2 mph SW14.8 kmh SW 12.7 mph20.4 kmh 29.44 in997.0 mb - 0.00 in0.0 mm 0.11 in2.8 mm
10:30 PM 55.0°F12.8°C 46.9°F8.3°C 74% 10.4 mph SW16.7 kmh SW 16.1 mph25.9 kmh 29.44 in997.0 mb - 0.00 in0.0 mm 0.11 in2.8 mm
10:35 PM 55.0°F12.8°C 46.5°F8.1°C 73% 5.8 mph SSW9.3 kmh SSW 9.2 mph14.8 kmh 29.44 in997.0 mb - 0.00 in0.0 mm 0.11 in2.8 mm
10:40 PM 55.0°F12.8°C 46.5°F8.1°C 73% 6.9 mph SW11.1 kmh SW 10.4 mph16.7 kmh 29.47 in998.0 mb - 0.00 in0.0 mm 0.11 in2.8 mm
10:45 PM 55.0°F12.8°C 46.2°F7.9°C 72% 6.9 mph SW11.1 kmh SW 9.2 mph14.8 kmh 29.47 in998.0 mb - 0.00 in0.0 mm 0.11 in2.8 mm
10:50 PM 55.0°F12.8°C 45.8°F7.7°C 71% 6.9 mph SW11.1 kmh SW 13.8 mph22.2 kmh 29.47 in998.0 mb - 0.00 in0.0 mm 0.11 in2.8 mm
10:55 PM 55.0°F12.8°C 45.8°F7.7°C 71% 5.8 mph WSW9.3 kmh WSW 8.1 mph13.0 kmh 29.47 in998.0 mb - 0.00 in0.0 mm 0.11 in2.8 mm
11:00 PM 54.9°F12.7°C 45.6°F7.6°C 71% 5.8 mph SSW9.3 kmh SSW 6.9 mph11.1 kmh 29.47 in998.0 mb - 0.00 in0.0 mm 1.10 in27.9 mm
11:10 PM 54.5°F12.5°C 45.3°F7.4°C 71% 5.8 mph SW9.3 kmh SW 9.2 mph14.8 kmh 29.50 in999.0 mb - 0.00 in0.0 mm 1.10 in27.9 mm
11:15 PM 54.5°F12.5°C 45.3°F7.4°C 71% 5.8 mph SW9.3 kmh SW 8.1 mph13.0 kmh 29.50 in999.0 mb - 0.00 in0.0 mm 1.10 in27.9 mm
11:20 PM 54.5°F12.5°C 45.3°F7.4°C 71% 4.6 mph SW7.4 kmh SW 6.9 mph11.1 kmh 29.50 in999.0 mb - 0.00 in0.0 mm 1.10 in27.9 mm
11:25 PM 54.3°F12.4°C 45.1°F7.3°C 71% 5.8 mph SW9.3 kmh SW 11.5 mph18.5 kmh 29.47 in998.0 mb - 0.00 in0.0 mm 1.10 in27.9 mm
11:30 PM 54.3°F12.4°C 45.1°F7.3°C 71% 5.8 mph SW9.3 kmh SW 11.5 mph18.5 kmh 29.47 in998.0 mb - 0.00 in0.0 mm 1.10 in27.9 mm
11:35 PM 54.5°F12.5°C 45.3°F7.4°C 71% 6.9 mph SW11.1 kmh SW 8.1 mph13.0 kmh 29.47 in998.0 mb - 0.00 in0.0 mm 1.10 in27.9 mm
11:40 PM 54.5°F12.5°C 45.3°F7.4°C 71% 6.9 mph S11.1 kmh S 11.5 mph18.5 kmh 29.50 in999.0 mb - 0.00 in0.0 mm 1.10 in27.9 mm
11:45 PM 54.5°F12.5°C 45.3°F7.4°C 71% 8.1 mph WSW13.0 kmh WSW 11.5 mph18.5 kmh 29.50 in999.0 mb - 0.00 in0.0 mm 1.10 in27.9 mm
11:50 PM 54.7°F12.6°C 45.1°F7.3°C 70% 8.1 mph WSW13.0 kmh WSW 11.5 mph18.5 kmh 29.50 in999.0 mb - 0.00 in0.0 mm 1.10 in27.9 mm
11:55 PM 54.7°F12.6°C 45.1°F7.3°C 70% 6.9 mph SW11.1 kmh SW 10.4 mph16.7 kmh 29.47 in998.0 mb - 0.00 in0.0 mm 1.10 in27.9 mm